Wetterdaten: Woche 31.08.09 - 06.09.09 (KW36)
Datum Zeit Temp. A. Feuchte A. Luftdruck Regen Wind Richtung Taupunkt Windchill Windben
31.08.2009 00:00 12,6 C 80 % 1021,9 hPa 0,0 l/m 0,1 km/h N 9,2 C 12,6 C 2,9 km/h
31.08.2009 01:00 12,3 C 80 % 1022,0 hPa 0,0 l/m 0,0 km/h N 8,9 C 12,3 C 2,0 km/h
31.08.2009 02:00 12,2 C 80 % 1022,0 hPa 0,0 l/m 0,5 km/h N 8,8 C 12,2 C 5,6 km/h
31.08.2009 03:00 11,8 C 80 % 1022,0 hPa 0,0 l/m 0,3 km/h N 8,5 C 11,8 C 4,8 km/h
31.08.2009 04:00 11,7 C 80 % 1022,2 hPa 0,0 l/m 0,4 km/h N 8,4 C 11,7 C 4,8 km/h
31.08.2009 05:00 11,4 C 81 % 1022,3 hPa 0,0 l/m 0,2 km/h N 8,3 C 11,4 C 2,4 km/h
31.08.2009 06:00 10,9 C 84 % 1022,7 hPa 0,0 l/m 0,2 km/h N 8,3 C 10,9 C 2,4 km/h
31.08.2009 07:00 11,5 C 84 % 1023,1 hPa 0,0 l/m 0,0 km/h N 8,9 C 11,5 C 1,6 km/h
31.08.2009 08:00 13,7 C 78 % 1023,5 hPa 0,0 l/m 0,0 km/h N 10,0 C 13,7 C 0,8 km/h
31.08.2009 09:00 16,2 C 73 % 1023,6 hPa 0,0 l/m 0,0 km/h N 11,4 C 16,2 C 1,6 km/h
31.08.2009 10:00 17,8 C 68 % 1023,8 hPa 0,0 l/m 0,4 km/h N 11,7 C 17,8 C 3,2 km/h
31.08.2009 11:00 20,1 C 59 % 1023,5 hPa 0,0 l/m 0,6 km/h SO 11,7 C 20,1 C 3,6 km/h
31.08.2009 12:00 21,4 C 55 % 1022,8 hPa 0,0 l/m 1,1 km/h O 11,8 C 21,4 C 6,4 km/h
31.08.2009 13:00 22,3 C 47 % 1022,3 hPa 0,0 l/m 1,9 km/h N-NO 10,3 C 22,3 C 8,0 km/h
31.08.2009 14:00 23,0 C 44 % 1021,6 hPa 0,0 l/m 2,0 km/h O-NO 10,0 C 23,0 C 10,1 km/h
31.08.2009 15:00 22,6 C 48 % 1021,0 hPa 0,0 l/m 2,5 km/h O 11,0 C 22,6 C 8,0 km/h
31.08.2009 16:00 22,9 C 50 % 1020,5 hPa 0,0 l/m 2,1 km/h O-SO 11,8 C 22,9 C 8,4 km/h
31.08.2009 17:00 22,7 C 49 % 1020,1 hPa 0,0 l/m 2,2 km/h O-SO 11,3 C 22,7 C 6,4 km/h
31.08.2009 18:00 22,2 C 50 % 1019,9 hPa 0,0 l/m 1,6 km/h O 11,3 C 22,2 C 6,0 km/h
31.08.2009 19:00 20,8 C 55 % 1019,7 hPa 0,0 l/m 0,4 km/h N 11,5 C 20,8 C 2,8 km/h
31.08.2009 20:00 17,7 C 68 % 1019,9 hPa 0,0 l/m 0,0 km/h N 11,7 C 17,7 C 0,4 km/h
31.08.2009 21:00 15,6 C 78 % 1019,9 hPa 0,0 l/m 0,0 km/h N 11,7 C 15,6 C 0,0 km/h
31.08.2009 22:00 14,3 C 82 % 1019,8 hPa 0,0 l/m 0,0 km/h N 11,3 C 14,3 C 0,4 km/h
31.08.2009 23:00 13,4 C 86 % 1019,7 hPa 0,0 l/m 0,0 km/h N 11,1 C 13,4 C 0,0 km/h
01.09.2009 00:00 13,1 C 87 % 1019,4 hPa 0,0 l/m 0,0 km/h N 11,1 C 13,1 C 0,3 km/h
01.09.2009 01:00 12,8 C 89 % 1019,0 hPa 0,0 l/m 0,0 km/h N 10,9 C 12,8 C 0,0 km/h
01.09.2009 02:00 12,2 C 90 % 1018,6 hPa 0,0 l/m 0,0 km/h N 10,5 C 12,2 C 0,0 km/h
01.09.2009 03:00 11,9 C 91 % 1018,2 hPa 0,0 l/m 0,0 km/h N 10,4 C 11,9 C 0,0 km/h
01.09.2009 04:00 11,3 C 91 % 1017,9 hPa 0,0 l/m 0,0 km/h N 9,9 C 11,3 C 0,4 km/h
01.09.2009 05:00 11,3 C 92 % 1017,7 hPa 0,0 l/m 0,0 km/h N 10,0 C 11,3 C 0,4 km/h
01.09.2009 06:00 11,1 C 92 % 1017,8 hPa 0,0 l/m 0,0 km/h N 9,7 C 11,1 C 0,0 km/h
01.09.2009 07:00 12,8 C 91 % 1017,9 hPa 0,0 l/m 0,0 km/h N 11,2 C 12,8 C 0,4 km/h
01.09.2009 08:00 15,6 C 79 % 1018,2 hPa 0,0 l/m 0,0 km/h N 12,0 C 15,6 C 1,6 km/h
01.09.2009 09:00 17,9 C 71 % 1018,2 hPa 0,0 l/m 0,1 km/h N 12,6 C 17,9 C 1,6 km/h
01.09.2009 10:00 20,3 C 64 % 1018,2 hPa 0,0 l/m 0,3 km/h N 13,1 C 20,3 C 3,2 km/h
01.09.2009 11:00 23,5 C 57 % 1017,8 hPa 0,0 l/m 1,0 km/h S-SW 14,4 C 23,5 C 6,4 km/h
01.09.2009 12:00 25,4 C 52 % 1017,1 hPa 0,0 l/m 1,8 km/h O 14,7 C 25,4 C 9,6 km/h
01.09.2009 13:00 26,5 C 49 % 1016,6 hPa 0,0 l/m 1,8 km/h SW 14,8 C 26,5 C 8,4 km/h
01.09.2009 14:00 26,7 C 49 % 1016,0 hPa 0,0 l/m 1,6 km/h O-NO 15,1 C 26,7 C 8,0 km/h
01.09.2009 15:00 27,3 C 46 % 1015,5 hPa 0,0 l/m 1,7 km/h O 14,6 C 27,3 C 9,3 km/h
01.09.2009 16:00 27,1 C 48 % 1015,0 hPa 0,0 l/m 1,5 km/h NO 15,1 C 27,1 C 5,6 km/h
01.09.2009 17:00 26,6 C 51 % 1014,7 hPa 0,0 l/m 1,3 km/h O-NO 15,5 C 26,6 C 7,6 km/h
01.09.2009 18:00 25,4 C 55 % 1014,3 hPa 0,0 l/m 0,7 km/h N 15,6 C 25,4 C 3,6 km/h
01.09.2009 19:00 23,5 C 61 % 1014,0 hPa 0,0 l/m 0,1 km/h N 15,6 C 23,5 C 2,0 km/h
01.09.2009 20:00 20,5 C 72 % 1014,2 hPa 0,0 l/m 0,0 km/h N 15,3 C 20,5 C 0,0 km/h
01.09.2009 21:00 17,5 C 85 % 1014,2 hPa 0,0 l/m 0,0 km/h N 14,9 C 17,5 C 0,0 km/h
01.09.2009 22:00 16,4 C 89 % 1014,0 hPa 0,0 l/m 0,0 km/h N 14,5 C 16,4 C 0,0 km/h
01.09.2009 23:00 15,7 C 90 % 1013,8 hPa 0,0 l/m 0,0 km/h N 14,1 C 15,7 C 0,0 km/h
02.09.2009 00:00 15,4 C 91 % 1013,5 hPa 0,0 l/m 0,0 km/h N 13,9 C 15,4 C 0,0 km/h
02.09.2009 01:00 14,9 C 92 % 1013,1 hPa 0,0 l/m 0,0 km/h N 13,6 C 14,9 C 0,0 km/h
02.09.2009 02:00 14,7 C 92 % 1013,1 hPa 0,0 l/m 0,0 km/h N 13,3 C 14,7 C 0,0 km/h
02.09.2009 03:00 14,3 C 92 % 1013,2 hPa 0,0 l/m 0,0 km/h N 13,0 C 14,3 C 0,0 km/h
02.09.2009 04:00 14,6 C 92 % 1013,8 hPa 0,0 l/m 0,0 km/h N 13,3 C 14,6 C 0,8 km/h
02.09.2009 05:00 16,3 C 90 % 1014,1 hPa 0,0 l/m 1,5 km/h N-NO 14,6 C 16,3 C 6,0 km/h
02.09.2009 06:00 17,1 C 87 % 1014,4 hPa 0,0 l/m 0,2 km/h N 14,9 C 17,1 C 2,8 km/h
02.09.2009 07:00 20,2 C 78 % 1015,0 hPa 0,0 l/m 1,3 km/h N-NO 16,1 C 20,2 C 6,4 km/h
02.09.2009 08:00 22,0 C 67 % 1015,3 hPa 0,0 l/m 3,2 km/h N-NW 15,6 C 22,0 C 13,6 km/h
02.09.2009 09:00 23,0 C 66 % 1015,7 hPa 0,0 l/m 6,4 km/h NW 16,1 C 23,0 C 21,7 km/h
02.09.2009 10:00 23,9 C 64 % 1016,3 hPa 0,0 l/m 5,6 km/h NW 16,5 C 23,9 C 17,7 km/h
02.09.2009 11:00 24,9 C 61 % 1016,5 hPa 0,0 l/m 4,8 km/h NW 16,8 C 24,9 C 15,3 km/h
02.09.2009 12:00 24,6 C 62 % 1016,6 hPa 0,0 l/m 5,6 km/h NW 16,8 C 24,6 C 15,3 km/h
02.09.2009 13:00 25,0 C 63 % 1016,4 hPa 0,0 l/m 4,8 km/h NW 17,5 C 25,0 C 12,9 km/h
02.09.2009 14:00 24,3 C 63 % 1016,3 hPa 0,0 l/m 2,4 km/h SW 16,7 C 24,3 C 12,9 km/h
02.09.2009 15:00 24,2 C 66 % 1015,8 hPa 0,0 l/m 1,6 km/h NW 17,3 C 24,2 C 8,1 km/h
02.09.2009 16:00 24,7 C 62 % 1015,1 hPa 0,0 l/m 2,4 km/h NW 16,8 C 24,7 C 11,3 km/h
02.09.2009 17:00 24,0 C 64 % 1014,6 hPa 0,0 l/m 1,6 km/h N-NW 16,7 C 24,0 C 6,4 km/h
02.09.2009 18:00 24,1 C 63 % 1014,0 hPa 0,0 l/m 0,8 km/h N 16,6 C 24,1 C 4,0 km/h
02.09.2009 19:00 22,5 C 71 % 1013,6 hPa 0,0 l/m 0,0 km/h N 16,8 C 22,5 C 1,6 km/h
02.09.2009 20:00 20,1 C 80 % 1013,3 hPa 0,0 l/m 0,0 km/h N 16,4 C 20,1 C 0,8 km/h
02.09.2009 21:00 18,8 C 87 % 1013,2 hPa 0,0 l/m 0,0 km/h N 16,4 C 18,8 C 0,0 km/h
02.09.2009 22:00 17,6 C 89 % 1012,6 hPa 0,0 l/m 0,0 km/h N 15,8 C 17,6 C 0,0 km/h
02.09.2009 23:00 17,3 C 89 % 1012,4 hPa 0,0 l/m 0,0 km/h N 15,5 C 17,3 C 1,6 km/h
03.09.2009 00:00 17,0 C 91 % 1011,7 hPa 0,0 l/m 0,0 km/h N 15,4 C 17,0 C 0,0 km/h
03.09.2009 01:00 16,7 C 91 % 1011,1 hPa 0,0 l/m 0,0 km/h N 15,2 C 16,7 C 0,0 km/h
03.09.2009 02:00 16,7 C 92 % 1010,6 hPa 0,0 l/m 0,0 km/h N 15,3 C 16,7 C 0,0 km/h
03.09.2009 03:00 16,7 C 91 % 1010,4 hPa 0,0 l/m 0,0 km/h N 15,2 C 16,7 C 3,2 km/h
03.09.2009 04:00 17,4 C 89 % 1009,8 hPa 0,0 l/m 0,0 km/h N 15,5 C 17,4 C 2,4 km/h
03.09.2009 05:00 17,2 C 90 % 1008,9 hPa 0,0 l/m 0,0 km/h N 15,5 C 17,2 C 1,6 km/h
03.09.2009 06:00 16,8 C 90 % 1008,5 hPa 0,0 l/m 0,0 km/h N 15,1 C 16,8 C 3,2 km/h
03.09.2009 07:00 17,2 C 91 % 1008,3 hPa 0,0 l/m 0,0 km/h N 15,7 C 17,2 C 0,0 km/h
03.09.2009 08:00 19,2 C 86 % 1007,8 hPa 0,0 l/m 0,0 km/h N 16,7 C 19,2 C 1,6 km/h
03.09.2009 09:00 21,2 C 80 % 1007,4 hPa 0,0 l/m 0,0 km/h N 17,6 C 21,2 C 4,0 km/h
03.09.2009 10:00 22,5 C 75 % 1007,3 hPa 0,0 l/m 0,0 km/h N 17,7 C 22,5 C 5,6 km/h
03.09.2009 11:00 24,4 C 69 % 1007,3 hPa 0,0 l/m 0,0 km/h N-NO 18,2 C 24,4 C 4,8 km/h
03.09.2009 12:00 26,5 C 58 % 1007,0 hPa 0,0 l/m 2,4 km/h N-NW 17,6 C 26,5 C 10,5 km/h
03.09.2009 13:00 27,0 C 58 % 1006,6 hPa 0,0 l/m 4,0 km/h SW 18,0 C 27,0 C 12,9 km/h
03.09.2009 14:00 26,8 C 59 % 1006,4 hPa 0,0 l/m 2,4 km/h N-NW 18,0 C 26,8 C 8,9 km/h
03.09.2009 15:00 27,3 C 54 % 1005,7 hPa 0,0 l/m 1,6 km/h W 17,1 C 27,3 C 7,2 km/h
03.09.2009 16:00 28,1 C 53 % 1004,9 hPa 0,0 l/m 1,6 km/h W-SW 17,6 C 28,1 C 7,2 km/h
03.09.2009 17:00 27,3 C 57 % 1004,5 hPa 0,0 l/m 0,0 km/h N 17,9 C 27,3 C 3,2 km/h
03.09.2009 18:00 25,8 C 63 % 1004,4 hPa 0,0 l/m 0,0 km/h W 18,1 C 25,8 C 2,4 km/h
03.09.2009 19:00 24,9 C 65 % 1005,3 hPa 0,0 l/m 1,6 km/h W 17,7 C 24,9 C 4,8 km/h
03.09.2009 20:00 19,5 C 85 % 1007,9 hPa 1,2 l/m 6,4 km/h NW 16,9 C 19,2 C 19,3 km/h
03.09.2009 21:00 19,2 C 82 % 1008,1 hPa 0,6 l/m 2,4 km/h W-SW 16,0 C 19,2 C 10,5 km/h
03.09.2009 22:00 19,4 C 83 % 1008,3 hPa 0,0 l/m 0,8 km/h N 16,4 C 19,4 C 14,4 km/h
03.09.2009 23:00 18,9 C 86 % 1009,0 hPa 0,0 l/m 0,0 km/h N 16,4 C 18,9 C 1,6 km/h
04.09.2009 00:00 18,7 C 87 % 1009,2 hPa 0,0 l/m 0,0 km/h N 16,4 C 18,7 C 2,4 km/h
04.09.2009 01:00 18,3 C 88 % 1009,3 hPa 0,6 l/m 0,0 km/h N 16,2 C 18,3 C 4,0 km/h
04.09.2009 02:00 18,8 C 83 % 1009,6 hPa 0,0 l/m 1,6 km/h N-NW 15,8 C 18,8 C 6,4 km/h
04.09.2009 03:00 18,5 C 84 % 1010,0 hPa 0,0 l/m 2,4 km/h N-NO 15,7 C 18,5 C 8,0 km/h
04.09.2009 04:00 18,0 C 83 % 1010,2 hPa 0,0 l/m 0,8 km/h N 15,1 C 18,0 C 7,2 km/h
04.09.2009 05:00 17,5 C 87 % 1010,3 hPa 0,0 l/m 0,0 km/h N 15,3 C 17,5 C 0,8 km/h
04.09.2009 06:00 17,5 C 89 % 1010,7 hPa 0,0 l/m 0,0 km/h N 15,6 C 17,5 C 0,8 km/h
04.09.2009 07:00 17,5 C 89 % 1011,1 hPa 0,0 l/m 0,0 km/h N 15,6 C 17,5 C 0,8 km/h
04.09.2009 08:00 17,7 C 90 % 1011,6 hPa 0,0 l/m 0,0 km/h N 15,9 C 17,7 C 0,4 km/h
04.09.2009 09:00 17,6 C 89 % 1011,9 hPa 0,0 l/m 0,0 km/h N 15,7 C 17,6 C 1,2 km/h
04.09.2009 10:00 18,0 C 86 % 1011,9 hPa 0,0 l/m 0,2 km/h N 15,6 C 18,0 C 2,4 km/h
04.09.2009 11:00 17,9 C 85 % 1011,6 hPa 0,3 l/m 0,5 km/h S-SW 15,3 C 17,9 C 4,8 km/h
04.09.2009 12:00 17,4 C 87 % 1011,9 hPa 0,3 l/m 0,2 km/h N 15,2 C 17,4 C 4,0 km/h
04.09.2009 13:00 17,4 C 87 % 1011,5 hPa 0,0 l/m 0,6 km/h S 15,2 C 17,4 C 5,2 km/h
04.09.2009 14:00 17,6 C 85 % 1011,2 hPa 0,0 l/m 1,8 km/h S-SW 15,0 C 17,6 C 9,3 km/h
04.09.2009 15:00 17,4 C 87 % 1010,4 hPa 0,6 l/m 0,6 km/h SW 15,1 C 17,4 C 6,4 km/h
04.09.2009 16:00 16,9 C 89 % 1010,5 hPa 1,2 l/m 0,6 km/h S-SO 15,0 C 16,9 C 5,6 km/h
04.09.2009 17:00 16,6 C 91 % 1010,5 hPa 0,9 l/m 0,8 km/h S-SW 15,1 C 16,6 C 5,2 km/h
04.09.2009 18:00 16,4 C 92 % 1010,5 hPa 1,5 l/m 0,1 km/h N 15,1 C 16,4 C 2,4 km/h
04.09.2009 19:00 15,4 C 92 % 1010,0 hPa 4,5 l/m 0,6 km/h N 14,0 C 15,4 C 5,2 km/h
04.09.2009 20:00 14,7 C 91 % 1009,7 hPa 0,6 l/m 0,2 km/h N 13,3 C 14,7 C 2,4 km/h
04.09.2009 21:00 14,5 C 91 % 1010,0 hPa 0,0 l/m 0,6 km/h N 13,0 C 14,5 C 5,6 km/h
04.09.2009 22:00 14,3 C 92 % 1010,0 hPa 0,0 l/m 0,0 km/h N 12,9 C 14,3 C 1,2 km/h
04.09.2009 23:00 13,9 C 93 % 1010,3 hPa 0,0 l/m 0,1 km/h N 12,8 C 13,9 C 2,4 km/h
05.09.2009 00:00 15,5 C 83 % 1010,5 hPa 0,0 l/m 4,6 km/h S-SO 12,6 C 15,2 C 19,3 km/h
05.09.2009 01:00 15,8 C 75 % 1012,1 hPa 0,9 l/m 10,7 km/h SW 11,2 C 13,8 C 32,2 km/h
05.09.2009 02:00 14,3 C 76 % 1013,5 hPa 0,0 l/m 7,6 km/h W-SW 10,1 C 13,6 C 28,2 km/h
05.09.2009 03:00 14,3 C 73 % 1013,8 hPa 0,0 l/m 5,9 km/h SW 9,4 C 14,3 C 28,2 km/h
05.09.2009 04:00 14,2 C 70 % 1015,0 hPa 0,0 l/m 9,0 km/h S-SO 8,8 C 12,8 C 31,0 km/h
05.09.2009 05:00 13,1 C 78 % 1016,1 hPa 0,9 l/m 7,6 km/h W 9,4 C 12,4 C 24,5 km/h
05.09.2009 06:00 13,1 C 78 % 1017,0 hPa 0,3 l/m 7,1 km/h SW 9,3 C 12,7 C 26,1 km/h
05.09.2009 07:00 13,3 C 73 % 1017,9 hPa 0,0 l/m 6,1 km/h SW 8,5 C 13,2 C 27,8 km/h
05.09.2009 08:00 13,8 C 71 % 1018,4 hPa 0,0 l/m 6,5 km/h S 8,6 C 13,5 C 24,6 km/h
05.09.2009 09:00 14,4 C 68 % 1019,0 hPa 0,0 l/m 7,0 km/h S 8,6 C 14,1 C 25,7 km/h
05.09.2009 10:00 15,1 C 64 % 1019,3 hPa 0,0 l/m 7,7 km/h NW 8,4 C 14,4 C 26,9 km/h
05.09.2009 11:00 17,0 C 60 % 1019,3 hPa 0,0 l/m 6,4 km/h W-NW 9,1 C 16,7 C 24,5 km/h
05.09.2009 12:00 18,0 C 51 % 1019,2 hPa 0,0 l/m 8,4 km/h W-SW 7,6 C 17,2 C 29,0 km/h
05.09.2009 13:00 18,8 C 49 % 1019,0 hPa 0,0 l/m 9,1 km/h W-SW 7,9 C 17,6 C 31,4 km/h
05.09.2009 14:00 19,0 C 50 % 1019,3 hPa 0,0 l/m 7,9 km/h N-NW 8,3 C 18,4 C 28,6 km/h
05.09.2009 15:00 17,8 C 51 % 1019,9 hPa 0,0 l/m 5,9 km/h W-NW 7,5 C 17,8 C 28,2 km/h
05.09.2009 16:00 17,5 C 52 % 1020,3 hPa 0,0 l/m 4,1 km/h NO 7,4 C 17,5 C 16,1 km/h
05.09.2009 17:00 17,4 C 51 % 1020,7 hPa 0,0 l/m 3,3 km/h N-NO 7,2 C 17,4 C 16,9 km/h
05.09.2009 18:00 17,0 C 53 % 1020,9 hPa 0,0 l/m 2,3 km/h W-NW 7,4 C 17,0 C 9,7 km/h
05.09.2009 19:00 15,9 C 56 % 1021,4 hPa 0,0 l/m 0,9 km/h N 7,2 C 15,9 C 6,0 km/h
05.09.2009 20:00 14,6 C 63 % 1022,0 hPa 0,0 l/m 0,2 km/h N 7,5 C 14,6 C 3,6 km/h
05.09.2009 21:00 12,9 C 70 % 1022,2 hPa 0,0 l/m 0,1 km/h N 7,5 C 12,9 C 3,2 km/h
05.09.2009 22:00 11,7 C 74 % 1022,4 hPa 0,0 l/m 0,1 km/h N 7,1 C 11,7 C 2,4 km/h
05.09.2009 23:00 12,4 C 72 % 1022,4 hPa 0,0 l/m 0,3 km/h N 7,3 C 12,4 C 6,4 km/h
06.09.2009 00:00 12,2 C 71 % 1022,7 hPa 0,0 l/m 0,5 km/h N 7,1 C 12,2 C 8,4 km/h
06.09.2009 01:00 13,6 C 65 % 1022,7 hPa 0,0 l/m 1,3 km/h S-SO 7,1 C 13,6 C 10,5 km/h
06.09.2009 02:00 13,7 C 64 % 1022,7 hPa 0,0 l/m 1,5 km/h NW 7,0 C 13,7 C 10,4 km/h
06.09.2009 03:00 13,8 C 64 % 1022,6 hPa 0,0 l/m 2,3 km/h S-SO 7,0 C 13,8 C 11,7 km/h
06.09.2009 04:00 13,3 C 67 % 1022,9 hPa 0,0 l/m 2,2 km/h NW 7,1 C 13,3 C 12,1 km/h
06.09.2009 05:00 13,0 C 68 % 1023,0 hPa 0,0 l/m 1,9 km/h W-SW 7,2 C 13,0 C 13,3 km/h
06.09.2009 06:00 12,7 C 70 % 1023,6 hPa 0,0 l/m 1,7 km/h NW 7,3 C 12,7 C 9,6 km/h
06.09.2009 07:00 13,2 C 70 % 1024,0 hPa 0,0 l/m 2,5 km/h N-NO 7,7 C 13,2 C 11,7 km/h
06.09.2009 08:00 14,2 C 67 % 1024,4 hPa 0,0 l/m 3,5 km/h S 8,1 C 14,2 C 18,1 km/h
06.09.2009 09:00 14,9 C 66 % 1025,1 hPa 0,0 l/m 3,4 km/h NW 8,6 C 14,9 C 15,7 km/h
06.09.2009 10:00 16,0 C 65 % 1025,2 hPa 0,0 l/m 4,3 km/h O 9,3 C 16,0 C 15,7 km/h
06.09.2009 11:00 17,2 C 61 % 1025,1 hPa 0,0 l/m 5,5 km/h NW 9,6 C 17,1 C 15,3 km/h
06.09.2009 12:00 18,4 C 57 % 1024,7 hPa 0,0 l/m 5,5 km/h SO 9,6 C 18,4 C 18,1 km/h
06.09.2009 13:00 19,1 C 56 % 1024,3 hPa 0,0 l/m 5,3 km/h W-NW 10,0 C 19,0 C 17,3 km/h
06.09.2009 14:00 18,6 C 56 % 1024,1 hPa 0,0 l/m 5,6 km/h N-NW 9,6 C 18,5 C 16,1 km/h
06.09.2009 15:00 19,1 C 53 % 1023,6 hPa 0,0 l/m 5,7 km/h S 9,3 C 19,1 C 15,7 km/h
06.09.2009 16:00 19,0 C 54 % 1023,3 hPa 0,0 l/m 4,5 km/h W-SW 9,4 C 19,0 C 12,9 km/h
06.09.2009 17:00 18,6 C 54 % 1023,6 hPa 0,0 l/m 4,2 km/h N-NO 9,2 C 18,6 C 18,9 km/h
06.09.2009 18:00 17,2 C 56 % 1023,6 hPa 0,0 l/m 2,5 km/h O 8,3 C 17,2 C 10,9 km/h
06.09.2009 19:00 16,2 C 61 % 1023,9 hPa 0,0 l/m 1,1 km/h S 8,7 C 16,2 C 7,6 km/h
06.09.2009 20:00 15,2 C 65 % 1024,2 hPa 0,0 l/m 0,3 km/h N 8,7 C 15,2 C 4,4 km/h
06.09.2009 21:00 15,0 C 67 % 1024,4 hPa 0,0 l/m 0,6 km/h N 8,8 C 15,0 C 4,4 km/h
06.09.2009 22:00 14,6 C 68 % 1024,4 hPa 0,0 l/m 0,2 km/h N 8,7 C 14,6 C 2,4 km/h
06.09.2009 23:00 13,9 C 69 % 1024,7 hPa 0,0 l/m 0,5 km/h N 8,3 C 13,9 C 2,8 km/h
Min-Datum _ 31.08.09 31.08.09 03.09.09 - 31.08.09 - 06.09.09 31.08.09 31.08.09
_ Min-Zeit 06:45 14:00 17:00 - 00:16 - 03:00 06:45 00:45
Minimum _ 10,3 C 43 % 1004,4 hPa - 0,0 km/h - 6,9 C 10,3 C 0,0 km/h
Max-Datum _ 03.09.09 04.09.09 06.09.09 04.09.09 05.09.09 - 03.09.09 03.09.09 05.09.09
_ Max-Zeit 16:00 23:30 10:45 19:15 01:15 - 14:00 16:00 12:45
Maximum _ 28,6 C 93 % 1025,3 hPa 4,5 l/m 14,8 km/h
SW
- 18,5 C 28,2 C 40,2 km/h
SW
Durchschnitt _ 17,9 C 73 % 1016,2 hPa #14,4 l/m 1,8 km/h NW 12,6 C 17,8 C 7,9 km/h